sensor_id;sensor_type;location;lat;lon;timestamp;pressure;altitude;pressure_sealevel;temperature;humidity
62402;BME280;48440;51.224;22.506;2023-07-31T00:03:05;98606.78;;;19.79;69.76
62402;BME280;48440;51.224;22.506;2023-07-31T00:05:30;98603.22;;;19.78;69.73
62402;BME280;48440;51.224;22.506;2023-07-31T00:07:56;98596.44;;;19.76;69.44
62402;BME280;48440;51.224;22.506;2023-07-31T00:10:22;98595.63;;;19.75;69.71
62402;BME280;48440;51.224;22.506;2023-07-31T00:12:47;98597.25;;;19.76;70.01
62402;BME280;48440;51.224;22.506;2023-07-31T00:15:13;98592.22;;;19.78;69.83
62402;BME280;48440;51.224;22.506;2023-07-31T00:17:42;98598.53;;;19.79;70.03
62402;BME280;48440;51.224;22.506;2023-07-31T00:20:07;98597.06;;;19.81;69.57
62402;BME280;48440;51.224;22.506;2023-07-31T00:22:33;98592.22;;;19.78;69.67
62402;BME280;48440;51.224;22.506;2023-07-31T00:24:59;98607.59;;;19.79;69.42
62402;BME280;48440;51.224;22.506;2023-07-31T00:27:25;98604.38;;;19.77;69.93
62402;BME280;48440;51.224;22.506;2023-07-31T00:29:52;98600.69;;;19.73;69.98
62402;BME280;48440;51.224;22.506;2023-07-31T00:32:18;98609.06;;;19.77;69.88
62402;BME280;48440;51.224;22.506;2023-07-31T00:34:44;98602.75;;;19.76;70.29
62402;BME280;48440;51.224;22.506;2023-07-31T00:37:09;98594.84;;;19.75;70.42
62402;BME280;48440;51.224;22.506;2023-07-31T00:39:35;98600.22;;;19.71;70.48
62402;BME280;48440;51.224;22.506;2023-07-31T00:42:07;98601.03;;;19.72;70.71
62402;BME280;48440;51.224;22.506;2023-07-31T00:44:40;98603.78;;;19.72;70.85
62402;BME280;48440;51.224;22.506;2023-07-31T00:47:06;98600.53;;;19.70;70.63
62402;BME280;48440;51.224;22.506;2023-07-31T00:49:32;98601.69;;;19.69;71.04
62402;BME280;48440;51.224;22.506;2023-07-31T00:52:00;98594.22;;;19.69;70.85
62402;BME280;48440;51.224;22.506;2023-07-31T01:37:52;98620.03;;;19.47;72.18
62402;BME280;48440;51.224;22.506;2023-07-31T01:40:19;98617.63;;;19.46;72.13
62402;BME280;48440;51.224;22.506;2023-07-31T01:42:45;98620.69;;;19.44;71.92
62402;BME280;48440;51.224;22.506;2023-07-31T01:45:11;98619.88;;;19.44;71.89
62402;BME280;48440;51.224;22.506;2023-07-31T01:47:37;98621.81;;;19.43;71.96
62402;BME280;48440;51.224;22.506;2023-07-31T01:50:02;98619.88;;;19.44;72.19
62402;BME280;48440;51.224;22.506;2023-07-31T01:52:28;98623.44;;;19.44;71.92
62402;BME280;48440;51.224;22.506;2023-07-31T01:54:55;98631.38;;;19.46;72.11
62402;BME280;48440;51.224;22.506;2023-07-31T01:57:20;98637.19;;;19.44;72.09
62402;BME280;48440;51.224;22.506;2023-07-31T01:59:46;98634.78;;;19.43;71.82
62402;BME280;48440;51.224;22.506;2023-07-31T02:02:13;98629.13;;;19.39;72.04
62402;BME280;48440;51.224;22.506;2023-07-31T02:04:38;98631.06;;;19.39;72.26
62402;BME280;48440;51.224;22.506;2023-07-31T02:07:06;98628.63;;;19.37;72.64
62402;BME280;48440;51.224;22.506;2023-07-31T02:09:31;98632.84;;;19.35;72.87
62402;BME280;48440;51.224;22.506;2023-07-31T02:11:57;98624.91;;;19.33;72.81
62402;BME280;48440;51.224;22.506;2023-07-31T02:14:22;98626.88;;;19.32;72.79
62402;BME280;48440;51.224;22.506;2023-07-31T02:16:48;98627.50;;;19.29;72.95
62402;BME280;48440;51.224;22.506;2023-07-31T02:19:14;98634.16;;;19.28;73.06
62402;BME280;48440;51.224;22.506;2023-07-31T02:21:40;98633.34;;;19.28;73.20
62402;BME280;48440;51.224;22.506;2023-07-31T02:24:05;98638.38;;;19.26;72.94
62402;BME280;48440;51.224;22.506;2023-07-31T02:26:31;98635.47;;;19.22;73.35
62402;BME280;48440;51.224;22.506;2023-07-31T02:28:56;98640.19;;;19.22;73.28
62402;BME280;48440;51.224;22.506;2023-07-31T02:31:22;98640.63;;;19.24;73.18
62402;BME280;48440;51.224;22.506;2023-07-31T02:33:47;98634.00;;;19.25;72.70
62402;BME280;48440;51.224;22.506;2023-07-31T02:36:12;98637.75;;;19.20;73.32
62402;BME280;48440;51.224;22.506;2023-07-31T02:38:38;98642.28;;;19.16;73.23
62402;BME280;48440;51.224;22.506;2023-07-31T02:41:03;98637.28;;;19.18;73.14
62402;BME280;48440;51.224;22.506;2023-07-31T02:43:29;98644.72;;;19.18;73.11
62402;BME280;48440;51.224;22.506;2023-07-31T02:45:54;98640.66;;;19.15;73.58
62402;BME280;48440;51.224;22.506;2023-07-31T02:48:20;98641.81;;;19.14;73.42
62402;BME280;48440;51.224;22.506;2023-07-31T02:50:47;98651.19;;;19.13;73.76
62402;BME280;48440;51.224;22.506;2023-07-31T02:53:12;98650.69;;;19.11;73.65
62402;BME280;48440;51.224;22.506;2023-07-31T02:55:38;98641.47;;;19.07;73.90
62402;BME280;48440;51.224;22.506;2023-07-31T02:58:04;98642.13;;;19.04;73.80
62402;BME280;48440;51.224;22.506;2023-07-31T03:00:29;98647.16;;;19.02;74.06
62402;BME280;48440;51.224;22.506;2023-07-31T03:02:55;98642.47;;;19.03;73.89
62402;BME280;48440;51.224;22.506;2023-07-31T03:05:20;98646.34;;;19.02;74.04
62402;BME280;48440;51.224;22.506;2023-07-31T03:07:46;98649.25;;;19.05;74.11
62402;BME280;48440;51.224;22.506;2023-07-31T03:10:11;98643.59;;;19.02;74.23
62402;BME280;48440;51.224;22.506;2023-07-31T03:12:37;98651.69;;;18.98;74.08
62402;BME280;48440;51.224;22.506;2023-07-31T03:15:03;98652.47;;;18.98;74.15
62402;BME280;48440;51.224;22.506;2023-07-31T03:17:28;98653.97;;;18.96;74.33
62402;BME280;48440;51.224;22.506;2023-07-31T03:19:54;98652.47;;;18.98;74.16
62402;BME280;48440;51.224;22.506;2023-07-31T03:22:19;98646.19;;;18.98;74.25
62402;BME280;48440;51.224;22.506;2023-07-31T03:24:45;98642.28;;;18.99;74.11
62402;BME280;48440;51.224;22.506;2023-07-31T03:27:10;98636.00;;;18.98;74.10
62402;BME280;48440;51.224;22.506;2023-07-31T03:29:36;98641.03;;;18.96;74.63
62402;BME280;48440;51.224;22.506;2023-07-31T03:32:01;98644.56;;;18.97;74.74
62402;BME280;48440;51.224;22.506;2023-07-31T03:34:27;98643.78;;;18.96;74.65
62402;BME280;48440;51.224;22.506;2023-07-31T03:37:00;98648.78;;;18.94;74.69
62402;BME280;48440;51.224;22.506;2023-07-31T03:39:28;98639.06;;;18.97;74.57
62402;BME280;48440;51.224;22.506;2023-07-31T03:41:59;98643.28;;;18.94;74.34
62402;BME280;48440;51.224;22.506;2023-07-31T03:44:30;98650.41;;;18.95;74.26
62402;BME280;48440;51.224;22.506;2023-07-31T03:46:59;98650.72;;;18.94;74.59
62402;BME280;48440;51.224;22.506;2023-07-31T03:49:34;98655.56;;;18.97;74.35
62402;BME280;48440;51.224;22.506;2023-07-31T03:52:02;98658.66;;;18.95;74.60
62402;BME280;48440;51.224;22.506;2023-07-31T03:54:48;98662.53;;;18.94;74.84
62402;BME280;48440;51.224;22.506;2023-07-31T03:57:15;98663.34;;;18.95;74.60
62402;BME280;48440;51.224;22.506;2023-07-31T03:59:53;98663.66;;;18.93;74.56
62402;BME280;48440;51.224;22.506;2023-07-31T04:02:19;98661.41;;;18.95;74.27
62402;BME280;48440;51.224;22.506;2023-07-31T04:04:45;98671.44;;;18.91;74.73
62402;BME280;48440;51.224;22.506;2023-07-31T04:07:10;98664.63;;;18.89;75.12
62402;BME280;48440;51.224;22.506;2023-07-31T04:09:36;98672.72;;;18.94;74.84
62402;BME280;48440;51.224;22.506;2023-07-31T04:12:09;98675.97;;;18.96;74.82
62402;BME280;48440;51.224;22.506;2023-07-31T04:14:38;98674.03;;;18.96;74.75
62402;BME280;48440;51.224;22.506;2023-07-31T04:17:04;98680.31;;;18.97;74.62
62402;BME280;48440;51.224;22.506;2023-07-31T04:19:32;98687.41;;;18.98;74.39
62402;BME280;48440;51.224;22.506;2023-07-31T04:22:00;98688.22;;;18.98;74.20
62402;BME280;48440;51.224;22.506;2023-07-31T04:24:34;98682.06;;;19.02;74.33
62402;BME280;48440;51.224;22.506;2023-07-31T04:27:04;98686.44;;;19.03;73.96
62402;BME280;48440;51.224;22.506;2023-07-31T04:29:34;98687.75;;;19.05;73.60
62402;BME280;48440;51.224;22.506;2023-07-31T04:32:29;98679.66;;;19.09;74.19
62402;BME280;48440;51.224;22.506;2023-07-31T04:34:57;98688.72;;;19.09;73.97
62402;BME280;48440;51.224;22.506;2023-07-31T04:37:23;98685.00;;;19.14;73.98
62402;BME280;48440;51.224;22.506;2023-07-31T04:39:52;98679.00;;;19.12;74.08
62402;BME280;48440;51.224;22.506;2023-07-31T04:42:17;98677.22;;;19.16;74.39
62402;BME280;48440;51.224;22.506;2023-07-31T04:44:48;98683.69;;;19.20;74.41
62402;BME280;48440;51.224;22.506;2023-07-31T04:47:21;98689.31;;;19.23;74.21
62402;BME280;48440;51.224;22.506;2023-07-31T04:49:50;98697.41;;;19.28;74.00
62402;BME280;48440;51.224;22.506;2023-07-31T04:52:15;98688.19;;;19.33;73.81
62402;BME280;48440;51.224;22.506;2023-07-31T04:54:41;98685.28;;;19.38;73.75
62402;BME280;48440;51.224;22.506;2023-07-31T04:57:06;98682.84;;;19.45;73.29
62402;BME280;48440;51.224;22.506;2023-07-31T04:59:32;98684.94;;;19.48;73.61
62402;BME280;48440;51.224;22.506;2023-07-31T05:01:57;98681.50;;;19.60;72.88
62402;BME280;48440;51.224;22.506;2023-07-31T05:04:22;98681.97;;;19.71;72.47
62402;BME280;48440;51.224;22.506;2023-07-31T05:06:48;98679.72;;;20.02;71.61
62402;BME280;48440;51.224;22.506;2023-07-31T05:09:13;98685.06;;;20.28;71.00
62402;BME280;48440;51.224;22.506;2023-07-31T05:11:39;98676.28;;;20.43;70.37
62402;BME280;48440;51.224;22.506;2023-07-31T05:14:05;98682.75;;;20.68;70.05
62402;BME280;48440;51.224;22.506;2023-07-31T05:16:31;98680.44;;;20.91;68.64
62402;BME280;48440;51.224;22.506;2023-07-31T05:19:29;98682.34;;;20.99;68.47
62402;BME280;48440;51.224;22.506;2023-07-31T05:21:57;98683.94;;;21.00;68.49
62402;BME280;48440;51.224;22.506;2023-07-31T05:24:28;98690.50;;;21.08;68.46
62402;BME280;48440;51.224;22.506;2023-07-31T05:27:01;98685.81;;;21.08;67.88
62402;BME280;48440;51.224;22.506;2023-07-31T05:29:44;98681.31;;;21.04;66.94
62402;BME280;48440;51.224;22.506;2023-07-31T05:32:21;98687.09;;;20.90;67.52
62402;BME280;48440;51.224;22.506;2023-07-31T05:34:56;98686.63;;;20.88;67.72
62402;BME280;48440;51.224;22.506;2023-07-31T05:37:24;98689.69;;;20.74;67.86
62402;BME280;48440;51.224;22.506;2023-07-31T05:39:50;98694.09;;;20.66;68.68
62402;BME280;48440;51.224;22.506;2023-07-31T05:42:17;98690.53;;;20.66;69.03
62402;BME280;48440;51.224;22.506;2023-07-31T05:44:42;98689.25;;;20.63;69.01
62402;BME280;48440;51.224;22.506;2023-07-31T05:47:08;98687.97;;;20.61;68.88
62402;BME280;48440;51.224;22.506;2023-07-31T05:49:34;98688.31;;;20.59;68.96
62402;BME280;48440;51.224;22.506;2023-07-31T05:51:59;98693.69;;;20.56;69.28
62402;BME280;48440;51.224;22.506;2023-07-31T05:54:25;98690.13;;;20.55;69.23
62402;BME280;48440;51.224;22.506;2023-07-31T05:56:50;98692.88;;;20.55;69.31
62402;BME280;48440;51.224;22.506;2023-07-31T05:59:18;98698.28;;;20.52;68.98
62402;BME280;48440;51.224;22.506;2023-07-31T06:01:44;98695.63;;;20.55;68.32
62402;BME280;48440;51.224;22.506;2023-07-31T06:04:18;98700.66;;;20.53;68.71
62402;BME280;48440;51.224;22.506;2023-07-31T06:06:54;98695.63;;;20.55;68.87
62402;BME280;48440;51.224;22.506;2023-07-31T06:09:19;98699.34;;;20.59;69.05
62402;BME280;48440;51.224;22.506;2023-07-31T06:11:52;98699.47;;;20.63;69.21
62402;BME280;48440;51.224;22.506;2023-07-31T06:14:20;98696.34;;;20.73;69.30
62402;BME280;48440;51.224;22.506;2023-07-31T06:16:46;98698.53;;;20.80;69.11
62402;BME280;48440;51.224;22.506;2023-07-31T06:19:12;98692.97;;;20.88;69.00
62402;BME280;48440;51.224;22.506;2023-07-31T06:21:39;98699.22;;;20.97;68.75
62402;BME280;48440;51.224;22.506;2023-07-31T06:24:07;98700.16;;;21.02;68.61
62402;BME280;48440;51.224;22.506;2023-07-31T06:32:15;98699.38;;;21.34;67.46
62402;BME280;48440;51.224;22.506;2023-07-31T06:46:06;98701.13;;;21.96;64.22
62402;BME280;48440;51.224;22.506;2023-07-31T06:48:35;98707.56;;;21.88;64.26
62402;BME280;48440;51.224;22.506;2023-07-31T06:51:08;98708.59;;;21.95;64.50
62402;BME280;48440;51.224;22.506;2023-07-31T06:53:54;98705.63;;;22.37;64.78
62402;BME280;48440;51.224;22.506;2023-07-31T06:56:37;98705.69;;;22.77;62.67
62402;BME280;48440;51.224;22.506;2023-07-31T07:02:16;98710.16;;;23.06;62.35
62402;BME280;48440;51.224;22.506;2023-07-31T07:38:51;98714.94;;;25.52;53.49
62402;BME280;48440;51.224;22.506;2023-07-31T07:41:16;98715.91;;;25.21;52.90
62402;BME280;48440;51.224;22.506;2023-07-31T07:43:42;98713.63;;;24.88;53.44
62402;BME280;48440;51.224;22.506;2023-07-31T07:46:07;98718.47;;;24.56;54.42
62402;BME280;48440;51.224;22.506;2023-07-31T07:48:32;98719.13;;;24.34;54.63
62402;BME280;48440;51.224;22.506;2023-07-31T07:50:58;98727.69;;;24.13;55.05
62402;BME280;48440;51.224;22.506;2023-07-31T07:53:23;98726.44;;;23.95;55.73
62402;BME280;48440;51.224;22.506;2023-07-31T07:55:49;98720.97;;;23.83;55.89
62402;BME280;48440;51.224;22.506;2023-07-31T07:58:14;98728.69;;;23.89;56.62
62402;BME280;48440;51.224;22.506;2023-07-31T08:00:39;98720.34;;;24.21;55.81
62402;BME280;48440;51.224;22.506;2023-07-31T08:03:05;98720.75;;;24.70;55.61
62402;BME280;48440;51.224;22.506;2023-07-31T08:05:31;98718.84;;;25.28;55.04
62402;BME280;48440;51.224;22.506;2023-07-31T08:07:59;98717.25;;;25.66;51.61
62402;BME280;48440;51.224;22.506;2023-07-31T08:10:24;98712.50;;;25.89;50.16
62402;BME280;48440;51.224;22.506;2023-07-31T08:12:50;98716.06;;;26.13;50.50
62402;BME280;48440;51.224;22.506;2023-07-31T08:15:15;98723.25;;;26.36;49.46
62402;BME280;48440;51.224;22.506;2023-07-31T08:17:41;98709.75;;;26.65;49.71
62402;BME280;48440;51.224;22.506;2023-07-31T08:20:07;98711.94;;;26.79;50.13
62402;BME280;48440;51.224;22.506;2023-07-31T08:22:32;98717.97;;;26.84;47.69
62402;BME280;48440;51.224;22.506;2023-07-31T08:24:58;98715.19;;;26.84;47.29
62402;BME280;48440;51.224;22.506;2023-07-31T08:27:23;98711.34;;;26.92;48.08
62402;BME280;48440;51.224;22.506;2023-07-31T08:29:48;98716.69;;;27.04;48.10
62402;BME280;48440;51.224;22.506;2023-07-31T08:32:14;98714.50;;;26.91;47.47
62402;BME280;48440;51.224;22.506;2023-07-31T08:34:39;98717.00;;;26.69;49.38
62402;BME280;48440;51.224;22.506;2023-07-31T08:37:05;98727.19;;;26.35;49.90
62402;BME280;48440;51.224;22.506;2023-07-31T08:39:30;98724.72;;;26.08;49.70
62402;BME280;48440;51.224;22.506;2023-07-31T08:41:59;98725.41;;;26.24;50.47
62402;BME280;48440;51.224;22.506;2023-07-31T08:44:25;98733.81;;;26.54;49.42
62402;BME280;48440;51.224;22.506;2023-07-31T08:46:51;98726.88;;;26.67;48.24
62402;BME280;48440;51.224;22.506;2023-07-31T08:49:17;98724.59;;;26.99;48.19
62402;BME280;48440;51.224;22.506;2023-07-31T08:51:46;98722.69;;;27.07;48.37
62402;BME280;48440;51.224;22.506;2023-07-31T08:54:14;98720.88;;;27.21;47.09
62402;BME280;48440;51.224;22.506;2023-07-31T08:56:40;98726.50;;;27.25;45.70
62402;BME280;48440;51.224;22.506;2023-07-31T08:59:06;98726.63;;;27.35;46.27
62402;BME280;48440;51.224;22.506;2023-07-31T09:01:36;98719.66;;;27.52;46.73
62402;BME280;48440;51.224;22.506;2023-07-31T09:04:06;98713.72;;;27.57;45.62
62402;BME280;48440;51.224;22.506;2023-07-31T09:06:34;98723.63;;;27.51;44.80
62402;BME280;48440;51.224;22.506;2023-07-31T09:09:00;98722.78;;;27.47;45.80
62402;BME280;48440;51.224;22.506;2023-07-31T09:11:26;98731.81;;;27.37;45.91
62402;BME280;48440;51.224;22.506;2023-07-31T09:13:52;98727.91;;;27.12;46.13
62402;BME280;48440;51.224;22.506;2023-07-31T09:16:18;98725.75;;;26.72;47.64
62402;BME280;48440;51.224;22.506;2023-07-31T09:18:54;98731.78;;;26.28;50.02
62402;BME280;48440;51.224;22.506;2023-07-31T09:21:24;98731.00;;;26.04;51.11
62402;BME280;48440;51.224;22.506;2023-07-31T09:23:50;98741.59;;;25.95;52.40
62402;BME280;48440;51.224;22.506;2023-07-31T09:26:31;98737.59;;;25.74;53.25
62402;BME280;48440;51.224;22.506;2023-07-31T09:28:58;98731.38;;;25.61;53.21
62402;BME280;48440;51.224;22.506;2023-07-31T09:31:42;98727.56;;;25.46;53.00
62402;BME280;48440;51.224;22.506;2023-07-31T09:34:09;98729.81;;;25.41;53.11
62402;BME280;48440;51.224;22.506;2023-07-31T09:36:49;98733.25;;;25.15;52.66
62402;BME280;48440;51.224;22.506;2023-07-31T09:39:16;98736.06;;;24.99;53.27
62402;BME280;48440;51.224;22.506;2023-07-31T09:41:44;98749.44;;;24.78;54.10
62402;BME280;48440;51.224;22.506;2023-07-31T09:44:11;98765.25;;;24.58;54.65
62402;BME280;48440;51.224;22.506;2023-07-31T09:46:37;98758.28;;;24.48;54.58
62402;BME280;48440;51.224;22.506;2023-07-31T09:49:13;98751.47;;;24.61;54.30
62402;BME280;48440;51.224;22.506;2023-07-31T09:51:41;98749.28;;;24.70;53.68
62402;BME280;48440;51.224;22.506;2023-07-31T09:54:15;98744.25;;;24.76;51.73
62402;BME280;48440;51.224;22.506;2023-07-31T09:56:43;98739.28;;;25.01;50.65
62402;BME280;48440;51.224;22.506;2023-07-31T09:59:14;98741.41;;;25.27;50.87
62402;BME280;48440;51.224;22.506;2023-07-31T10:01:41;98743.66;;;25.60;49.79
62402;BME280;48440;51.224;22.506;2023-07-31T10:04:08;98742.63;;;25.87;49.61
62402;BME280;48440;51.224;22.506;2023-07-31T10:06:35;98735.84;;;26.08;50.24
62402;BME280;48440;51.224;22.506;2023-07-31T10:09:02;98733.69;;;26.20;49.08
62402;BME280;48440;51.224;22.506;2023-07-31T10:11:30;98735.31;;;26.25;48.59
62402;BME280;48440;51.224;22.506;2023-07-31T10:13:59;98735.91;;;26.34;49.38
62402;BME280;48440;51.224;22.506;2023-07-31T10:16:25;98732.13;;;26.23;48.71
62402;BME280;48440;51.224;22.506;2023-07-31T10:35:03;98729.53;;;26.11;49.58
62402;BME280;48440;51.224;22.506;2023-07-31T10:37:44;98724.97;;;26.22;49.63
62402;BME280;48440;51.224;22.506;2023-07-31T10:40:16;98730.53;;;26.45;48.69
62402;BME280;48440;51.224;22.506;2023-07-31T10:42:52;98727.16;;;26.58;46.76
62402;BME280;48440;51.224;22.506;2023-07-31T10:48:23;98722.69;;;26.54;46.57
62402;BME280;48440;51.224;22.506;2023-07-31T10:50:51;98721.09;;;26.53;47.77
62402;BME280;48440;51.224;22.506;2023-07-31T10:53:31;98711.94;;;26.52;48.49
62402;BME280;48440;51.224;22.506;2023-07-31T10:56:00;98708.78;;;26.54;48.10
62402;BME280;48440;51.224;22.506;2023-07-31T10:58:32;98713.03;;;26.44;48.89
62402;BME280;48440;51.224;22.506;2023-07-31T11:01:03;98702.91;;;26.32;48.11
62402;BME280;48440;51.224;22.506;2023-07-31T11:03:42;98704.28;;;26.19;49.36
62402;BME280;48440;51.224;22.506;2023-07-31T11:06:08;98700.25;;;26.17;49.83
62402;BME280;48440;51.224;22.506;2023-07-31T11:08:35;98696.38;;;26.25;48.88
62402;BME280;48440;51.224;22.506;2023-07-31T11:11:08;98701.50;;;26.19;48.60
62402;BME280;48440;51.224;22.506;2023-07-31T11:16:40;98698.09;;;26.07;45.98
62402;BME280;48440;51.224;22.506;2023-07-31T11:19:11;98697.66;;;26.04;46.77
62402;BME280;48440;51.224;22.506;2023-07-31T11:21:37;98690.13;;;26.05;47.51
62402;BME280;48440;51.224;22.506;2023-07-31T11:24:04;98697.16;;;25.99;45.89
62402;BME280;48440;51.224;22.506;2023-07-31T11:26:29;98697.13;;;25.95;46.20
62402;BME280;48440;51.224;22.506;2023-07-31T11:28:56;98693.91;;;25.93;47.41
62402;BME280;48440;51.224;22.506;2023-07-31T11:31:21;98690.41;;;25.96;48.71
62402;BME280;48440;51.224;22.506;2023-07-31T11:33:47;98694.28;;;25.92;46.63
62402;BME280;48440;51.224;22.506;2023-07-31T11:36:17;98680.19;;;25.81;45.68
62402;BME280;48440;51.224;22.506;2023-07-31T11:38:42;98695.56;;;25.75;47.54
62402;BME280;48440;51.224;22.506;2023-07-31T11:41:13;98692.41;;;25.77;48.39
62402;BME280;48440;51.224;22.506;2023-07-31T11:43:39;98684.81;;;25.74;48.59
62402;BME280;48440;51.224;22.506;2023-07-31T11:46:04;98682.81;;;25.71;48.03
62402;BME280;48440;51.224;22.506;2023-07-31T11:48:36;98683.63;;;25.75;47.73
62402;BME280;48440;51.224;22.506;2023-07-31T11:51:04;98689.25;;;25.78;47.81
62402;BME280;48440;51.224;22.506;2023-07-31T11:53:37;98683.34;;;25.80;47.53
62402;BME280;48440;51.224;22.506;2023-07-31T11:56:04;98682.97;;;25.81;47.36
62402;BME280;48440;51.224;22.506;2023-07-31T11:58:34;98678.78;;;25.68;47.91
62402;BME280;48440;51.224;22.506;2023-07-31T12:01:01;98672.91;;;25.54;47.49
62402;BME280;48440;51.224;22.506;2023-07-31T12:03:28;98679.53;;;25.46;47.48
62402;BME280;48440;51.224;22.506;2023-07-31T12:05:54;98675.06;;;25.41;47.40
62402;BME280;48440;51.224;22.506;2023-07-31T12:08:23;98679.47;;;25.42;48.43
62402;BME280;48440;51.224;22.506;2023-07-31T12:10:53;98668.78;;;25.44;48.49
62402;BME280;48440;51.224;22.506;2023-07-31T12:13:23;98651.88;;;25.53;48.84
62402;BME280;48440;51.224;22.506;2023-07-31T12:15:54;98661.44;;;25.55;47.22
62402;BME280;48440;51.224;22.506;2023-07-31T12:18:25;98656.13;;;25.47;48.31
62402;BME280;48440;51.224;22.506;2023-07-31T12:20:58;98657.19;;;25.39;48.93
62402;BME280;48440;51.224;22.506;2023-07-31T12:23:30;98652.72;;;25.34;49.51
62402;BME280;48440;51.224;22.506;2023-07-31T12:26:11;98655.44;;;25.30;49.13
62402;BME280;48440;51.224;22.506;2023-07-31T12:28:44;98659.09;;;25.34;48.24
62402;BME280;48440;51.224;22.506;2023-07-31T12:31:14;98662.06;;;25.26;47.22
62402;BME280;48440;51.224;22.506;2023-07-31T12:33:41;98655.28;;;25.23;48.92
62402;BME280;48440;51.224;22.506;2023-07-31T12:36:14;98654.91;;;25.25;49.86
62402;BME280;48440;51.224;22.506;2023-07-31T12:38:41;98647.16;;;25.34;49.24
62402;BME280;48440;51.224;22.506;2023-07-31T12:41:07;98653.53;;;25.34;47.95
62402;BME280;48440;51.224;22.506;2023-07-31T12:43:34;98648.56;;;25.44;47.59
62402;BME280;48440;51.224;22.506;2023-07-31T12:46:00;98655.53;;;25.57;47.83
62402;BME280;48440;51.224;22.506;2023-07-31T12:48:25;98651.00;;;25.68;47.74
62402;BME280;48440;51.224;22.506;2023-07-31T12:50:51;98651.44;;;25.70;46.32
62402;BME280;48440;51.224;22.506;2023-07-31T12:53:16;98651.72;;;25.65;47.58
62402;BME280;48440;51.224;22.506;2023-07-31T12:55:42;98647.63;;;25.59;48.18
62402;BME280;48440;51.224;22.506;2023-07-31T12:58:10;98649.03;;;25.49;48.23
62402;BME280;48440;51.224;22.506;2023-07-31T13:00:45;98643.81;;;25.44;48.22
62402;BME280;48440;51.224;22.506;2023-07-31T13:03:11;98646.13;;;25.42;48.85
62402;BME280;48440;51.224;22.506;2023-07-31T13:05:36;98643.16;;;25.31;48.53
62402;BME280;48440;51.224;22.506;2023-07-31T13:08:02;98650.53;;;25.24;48.68
62402;BME280;48440;51.224;22.506;2023-07-31T13:10:27;98647.75;;;25.24;48.87
62402;BME280;48440;51.224;22.506;2023-07-31T13:12:54;98652.06;;;25.21;48.68
62402;BME280;48440;51.224;22.506;2023-07-31T13:15:20;98643.63;;;25.14;48.77
62402;BME280;48440;51.224;22.506;2023-07-31T13:17:46;98638.28;;;25.06;48.86
62402;BME280;48440;51.224;22.506;2023-07-31T13:20:11;98644.22;;;25.04;49.06
62402;BME280;48440;51.224;22.506;2023-07-31T13:22:37;98638.59;;;25.00;48.90
62402;BME280;48440;51.224;22.506;2023-07-31T13:25:02;98640.41;;;24.93;49.04
62402;BME280;48440;51.224;22.506;2023-07-31T13:27:28;98636.22;;;24.83;48.15
62402;BME280;48440;51.224;22.506;2023-07-31T13:29:54;98633.81;;;24.82;48.40
62402;BME280;48440;51.224;22.506;2023-07-31T13:32:20;98627.19;;;24.86;48.37
62402;BME280;48440;51.224;22.506;2023-07-31T13:34:47;98629.66;;;24.91;48.45
62402;BME280;48440;51.224;22.506;2023-07-31T13:37:13;98627.78;;;24.95;48.48
62402;BME280;48440;51.224;22.506;2023-07-31T13:39:42;98630.53;;;24.95;47.74
62402;BME280;48440;51.224;22.506;2023-07-31T13:42:11;98628.84;;;24.91;47.29
62402;BME280;48440;51.224;22.506;2023-07-31T13:44:41;98631.91;;;24.86;45.43
62402;BME280;48440;51.224;22.506;2023-07-31T13:47:09;98637.75;;;24.81;46.22
62402;BME280;48440;51.224;22.506;2023-07-31T13:49:35;98627.81;;;24.80;47.06
62402;BME280;48440;51.224;22.506;2023-07-31T13:52:02;98627.53;;;24.85;47.84
62402;BME280;48440;51.224;22.506;2023-07-31T13:54:28;98632.72;;;24.86;47.63
62402;BME280;48440;51.224;22.506;2023-07-31T13:56:53;98631.19;;;24.89;48.59
62402;BME280;48440;51.224;22.506;2023-07-31T13:59:19;98630.31;;;24.85;48.91
62402;BME280;48440;51.224;22.506;2023-07-31T14:01:45;98632.78;;;24.70;48.83
62402;BME280;48440;51.224;22.506;2023-07-31T14:04:11;98623.16;;;24.64;48.84
62402;BME280;48440;51.224;22.506;2023-07-31T14:06:44;98626.94;;;24.56;49.45
62402;BME280;48440;51.224;22.506;2023-07-31T14:09:10;98632.03;;;24.54;48.91
62402;BME280;48440;51.224;22.506;2023-07-31T14:11:35;98629.56;;;24.49;48.55
62402;BME280;48440;51.224;22.506;2023-07-31T14:14:01;98627.94;;;24.48;48.44
62402;BME280;48440;51.224;22.506;2023-07-31T14:16:27;98613.63;;;24.46;48.19
62402;BME280;48440;51.224;22.506;2023-07-31T14:18:53;98624.28;;;24.44;47.50
62402;BME280;48440;51.224;22.506;2023-07-31T14:21:19;98621.38;;;24.37;47.60
62402;BME280;48440;51.224;22.506;2023-07-31T14:23:45;98616.19;;;24.35;47.65
62402;BME280;48440;51.224;22.506;2023-07-31T14:26:10;98618.88;;;24.32;47.11
62402;BME280;48440;51.224;22.506;2023-07-31T14:28:36;98627.03;;;24.25;47.17
62402;BME280;48440;51.224;22.506;2023-07-31T14:31:01;98618.50;;;24.18;47.53
62402;BME280;48440;51.224;22.506;2023-07-31T14:33:27;98632.66;;;24.13;47.94
62402;BME280;48440;51.224;22.506;2023-07-31T14:35:52;98641.34;;;24.11;47.65
62402;BME280;48440;51.224;22.506;2023-07-31T14:38:18;98632.22;;;24.11;47.94
62402;BME280;48440;51.224;22.506;2023-07-31T14:40:44;98622.38;;;24.13;47.88
62402;BME280;48440;51.224;22.506;2023-07-31T14:43:09;98624.44;;;24.16;47.65
62402;BME280;48440;51.224;22.506;2023-07-31T14:45:35;98632.81;;;24.20;47.53
62402;BME280;48440;51.224;22.506;2023-07-31T14:48:00;98628.16;;;24.24;47.58
62402;BME280;48440;51.224;22.506;2023-07-31T14:50:26;98625.94;;;24.29;46.59
62402;BME280;48440;51.224;22.506;2023-07-31T14:52:51;98620.56;;;24.37;46.27
62402;BME280;48440;51.224;22.506;2023-07-31T14:55:18;98619.78;;;24.36;46.42